Terminal Aerodrome Forecast
Issued by NWS

Home | Current Version | Previous Version | Text Only | Print | Product List | Glossary Off
Versions: 1 2 3 4 5 6 7 8 9 10 11 12 13 14 15 16 17 18 19 20 21 22 23 24 25 26 27 28 29 30 31 32 33 34 35 36 37 38
000 FTUS41 KBOX 280930 AAA TAFHYA TAF AMD KHYA 280930Z 2810/2906 34006KT P6SM OVC007 FM281100 34007KT 3SM -SN BR OVC012 FM281300 35008KT 3SM -RASN OVC025 FM281600 34012G21KT 5SM -RA OVC025 FM281800 35010G20KT P6SM SCT025 BKN070 FM282000 35009KT P6SM BKN250=

USA.gov is the U.S. government's official web portal to all federal, state and local government web resources and services.